sensor_id;sensor_type;location;lat;lon;timestamp;P1;durP1;ratioP1;P2;durP2;ratioP2
1414;SDS011;702;49.466;11.086;2023-06-24T00:01:51;5.30;;;4.17;;
1414;SDS011;702;49.466;11.086;2023-06-24T00:04:18;3.93;;;3.53;;
1414;SDS011;702;49.466;11.086;2023-06-24T00:06:45;5.07;;;4.60;;
1414;SDS011;702;49.466;11.086;2023-06-24T00:09:14;4.70;;;4.27;;
1414;SDS011;702;49.466;11.086;2023-06-24T00:11:42;4.90;;;4.40;;
1414;SDS011;702;49.466;11.086;2023-06-24T00:14:10;9.43;;;4.70;;
1414;SDS011;702;49.466;11.086;2023-06-24T00:16:40;5.50;;;4.47;;
1414;SDS011;702;49.466;11.086;2023-06-24T00:19:07;4.67;;;4.20;;
1414;SDS011;702;49.466;11.086;2023-06-24T00:21:34;5.67;;;4.77;;
1414;SDS011;702;49.466;11.086;2023-06-24T00:24:02;4.77;;;4.00;;
1414;SDS011;702;49.466;11.086;2023-06-24T00:26:31;6.23;;;3.90;;
1414;SDS011;702;49.466;11.086;2023-06-24T00:28:59;6.07;;;4.97;;
1414;SDS011;702;49.466;11.086;2023-06-24T00:31:28;6.13;;;4.13;;
1414;SDS011;702;49.466;11.086;2023-06-24T00:33:55;5.77;;;4.63;;
1414;SDS011;702;49.466;11.086;2023-06-24T00:36:23;5.73;;;4.40;;
1414;SDS011;702;49.466;11.086;2023-06-24T00:38:51;7.00;;;5.50;;
1414;SDS011;702;49.466;11.086;2023-06-24T00:41:19;6.20;;;4.93;;
1414;SDS011;702;49.466;11.086;2023-06-24T00:43:48;4.83;;;4.43;;
1414;SDS011;702;49.466;11.086;2023-06-24T00:46:15;7.90;;;4.97;;
1414;SDS011;702;49.466;11.086;2023-06-24T00:48:45;5.83;;;5.23;;
1414;SDS011;702;49.466;11.086;2023-06-24T00:51:12;4.97;;;4.57;;
1414;SDS011;702;49.466;11.086;2023-06-24T00:53:39;6.17;;;5.00;;
1414;SDS011;702;49.466;11.086;2023-06-24T00:56:07;7.60;;;4.53;;
1414;SDS011;702;49.466;11.086;2023-06-24T00:58:34;7.67;;;5.47;;
1414;SDS011;702;49.466;11.086;2023-06-24T01:01:05;6.00;;;5.17;;
1414;SDS011;702;49.466;11.086;2023-06-24T01:03:34;5.70;;;5.00;;
1414;SDS011;702;49.466;11.086;2023-06-24T01:06:03;5.40;;;4.90;;
1414;SDS011;702;49.466;11.086;2023-06-24T01:08:30;4.40;;;4.00;;
1414;SDS011;702;49.466;11.086;2023-06-24T01:10:58;6.47;;;5.77;;
1414;SDS011;702;49.466;11.086;2023-06-24T01:13:25;5.43;;;4.93;;
1414;SDS011;702;49.466;11.086;2023-06-24T01:15:52;5.70;;;5.10;;
1414;SDS011;702;49.466;11.086;2023-06-24T01:18:23;5.63;;;4.80;;
1414;SDS011;702;49.466;11.086;2023-06-24T01:20:56;6.07;;;5.43;;
1414;SDS011;702;49.466;11.086;2023-06-24T01:23:36;7.77;;;5.60;;
1414;SDS011;702;49.466;11.086;2023-06-24T01:26:39;5.90;;;5.30;;
1414;SDS011;702;49.466;11.086;2023-06-24T01:32:17;6.87;;;5.53;;
1414;SDS011;702;49.466;11.086;2023-06-24T01:34:55;5.80;;;5.30;;
1414;SDS011;702;49.466;11.086;2023-06-24T01:37:26;5.50;;;4.83;;
1414;SDS011;702;49.466;11.086;2023-06-24T01:40:01;6.83;;;5.57;;
1414;SDS011;702;49.466;11.086;2023-06-24T01:42:37;5.83;;;5.23;;
1414;SDS011;702;49.466;11.086;2023-06-24T01:45:07;8.60;;;5.67;;
1414;SDS011;702;49.466;11.086;2023-06-24T01:47:40;6.60;;;5.87;;
1414;SDS011;702;49.466;11.086;2023-06-24T01:50:11;7.03;;;5.40;;
1414;SDS011;702;49.466;11.086;2023-06-24T01:52:41;6.20;;;5.60;;
1414;SDS011;702;49.466;11.086;2023-06-24T01:55:14;8.60;;;5.80;;
1414;SDS011;702;49.466;11.086;2023-06-24T01:57:48;6.90;;;5.97;;
1414;SDS011;702;49.466;11.086;2023-06-24T02:00:17;6.70;;;5.30;;
1414;SDS011;702;49.466;11.086;2023-06-24T02:02:46;8.80;;;6.30;;
1414;SDS011;702;49.466;11.086;2023-06-24T02:05:14;6.90;;;5.80;;
1414;SDS011;702;49.466;11.086;2023-06-24T02:07:45;7.90;;;6.80;;
1414;SDS011;702;49.466;11.086;2023-06-24T02:10:14;7.13;;;6.20;;
1414;SDS011;702;49.466;11.086;2023-06-24T02:12:44;7.60;;;5.70;;
1414;SDS011;702;49.466;11.086;2023-06-24T02:15:15;6.60;;;5.70;;
1414;SDS011;702;49.466;11.086;2023-06-24T02:17:44;7.20;;;5.97;;
1414;SDS011;702;49.466;11.086;2023-06-24T02:20:15;7.47;;;5.50;;
1414;SDS011;702;49.466;11.086;2023-06-24T02:22:44;7.17;;;6.20;;
1414;SDS011;702;49.466;11.086;2023-06-24T02:25:12;8.00;;;6.37;;
1414;SDS011;702;49.466;11.086;2023-06-24T02:27:40;8.10;;;6.10;;
1414;SDS011;702;49.466;11.086;2023-06-24T02:30:08;7.37;;;6.00;;
1414;SDS011;702;49.466;11.086;2023-06-24T02:32:36;6.70;;;5.73;;
1414;SDS011;702;49.466;11.086;2023-06-24T02:35:05;7.00;;;6.17;;
1414;SDS011;702;49.466;11.086;2023-06-24T02:37:34;6.77;;;6.10;;
1414;SDS011;702;49.466;11.086;2023-06-24T02:40:01;7.47;;;6.67;;
1414;SDS011;702;49.466;11.086;2023-06-24T02:42:30;6.13;;;5.37;;
1414;SDS011;702;49.466;11.086;2023-06-24T02:44:57;7.90;;;7.10;;
1414;SDS011;702;49.466;11.086;2023-06-24T02:47:25;7.27;;;6.50;;
1414;SDS011;702;49.466;11.086;2023-06-24T02:49:53;7.07;;;6.20;;
1414;SDS011;702;49.466;11.086;2023-06-24T02:52:24;7.00;;;6.40;;
1414;SDS011;702;49.466;11.086;2023-06-24T02:54:54;9.97;;;6.80;;
1414;SDS011;702;49.466;11.086;2023-06-24T02:57:22;8.20;;;6.87;;
1414;SDS011;702;49.466;11.086;2023-06-24T02:59:50;8.80;;;6.80;;
1414;SDS011;702;49.466;11.086;2023-06-24T03:02:18;7.83;;;7.03;;
1414;SDS011;702;49.466;11.086;2023-06-24T03:04:45;8.27;;;6.27;;
1414;SDS011;702;49.466;11.086;2023-06-24T03:07:15;8.37;;;6.77;;
1414;SDS011;702;49.466;11.086;2023-06-24T03:09:47;8.63;;;6.93;;
1414;SDS011;702;49.466;11.086;2023-06-24T03:12:14;9.43;;;6.03;;
1414;SDS011;702;49.466;11.086;2023-06-24T03:14:41;8.80;;;6.40;;
1414;SDS011;702;49.466;11.086;2023-06-24T03:17:09;8.00;;;7.20;;
1414;SDS011;702;49.466;11.086;2023-06-24T03:19:37;8.40;;;6.90;;
1414;SDS011;702;49.466;11.086;2023-06-24T03:22:04;7.50;;;6.70;;
1414;SDS011;702;49.466;11.086;2023-06-24T03:24:31;7.70;;;6.67;;
1414;SDS011;702;49.466;11.086;2023-06-24T03:27:00;8.47;;;6.47;;
1414;SDS011;702;49.466;11.086;2023-06-24T03:29:27;7.03;;;6.20;;
1414;SDS011;702;49.466;11.086;2023-06-24T03:31:55;7.00;;;6.00;;
1414;SDS011;702;49.466;11.086;2023-06-24T03:34:22;7.30;;;6.23;;
1414;SDS011;702;49.466;11.086;2023-06-24T03:36:50;7.97;;;5.93;;
1414;SDS011;702;49.466;11.086;2023-06-24T03:39:19;6.90;;;6.30;;
1414;SDS011;702;49.466;11.086;2023-06-24T03:41:47;8.00;;;7.07;;
1414;SDS011;702;49.466;11.086;2023-06-24T03:44:15;7.90;;;6.97;;
1414;SDS011;702;49.466;11.086;2023-06-24T03:46:43;9.53;;;7.80;;
1414;SDS011;702;49.466;11.086;2023-06-24T03:49:10;7.33;;;6.37;;
1414;SDS011;702;49.466;11.086;2023-06-24T03:51:37;6.30;;;5.67;;
1414;SDS011;702;49.466;11.086;2023-06-24T03:54:05;6.73;;;6.00;;
1414;SDS011;702;49.466;11.086;2023-06-24T03:56:32;8.13;;;6.00;;
1414;SDS011;702;49.466;11.086;2023-06-24T03:59:00;7.30;;;6.60;;
1414;SDS011;702;49.466;11.086;2023-06-24T04:01:29;7.20;;;6.13;;
1414;SDS011;702;49.466;11.086;2023-06-24T04:03:57;6.50;;;5.60;;
1414;SDS011;702;49.466;11.086;2023-06-24T04:06:24;7.30;;;6.03;;
1414;SDS011;702;49.466;11.086;2023-06-24T04:08:52;6.33;;;5.30;;
1414;SDS011;702;49.466;11.086;2023-06-24T04:11:20;6.60;;;5.97;;
1414;SDS011;702;49.466;11.086;2023-06-24T04:13:47;6.40;;;5.33;;
1414;SDS011;702;49.466;11.086;2023-06-24T04:16:14;7.00;;;5.90;;
1414;SDS011;702;49.466;11.086;2023-06-24T04:18:43;6.63;;;5.90;;
1414;SDS011;702;49.466;11.086;2023-06-24T04:21:11;6.77;;;5.70;;
1414;SDS011;702;49.466;11.086;2023-06-24T04:23:39;6.50;;;5.50;;
1414;SDS011;702;49.466;11.086;2023-06-24T04:26:07;5.93;;;5.30;;
1414;SDS011;702;49.466;11.086;2023-06-24T04:28:34;4.90;;;4.50;;
1414;SDS011;702;49.466;11.086;2023-06-24T04:31:01;4.93;;;4.43;;
1414;SDS011;702;49.466;11.086;2023-06-24T04:33:30;5.63;;;4.57;;
1414;SDS011;702;49.466;11.086;2023-06-24T04:35:59;5.47;;;4.97;;
1414;SDS011;702;49.466;11.086;2023-06-24T04:38:26;4.70;;;4.30;;
1414;SDS011;702;49.466;11.086;2023-06-24T04:40:54;4.83;;;4.30;;
1414;SDS011;702;49.466;11.086;2023-06-24T04:43:22;5.03;;;4.50;;
1414;SDS011;702;49.466;11.086;2023-06-24T04:45:49;5.37;;;4.87;;
1414;SDS011;702;49.466;11.086;2023-06-24T04:48:17;5.73;;;5.23;;
1414;SDS011;702;49.466;11.086;2023-06-24T04:50:44;6.40;;;5.00;;
1414;SDS011;702;49.466;11.086;2023-06-24T04:53:12;4.83;;;4.43;;
1414;SDS011;702;49.466;11.086;2023-06-24T04:55:40;4.73;;;3.90;;
1414;SDS011;702;49.466;11.086;2023-06-24T04:58:07;5.50;;;5.00;;
1414;SDS011;702;49.466;11.086;2023-06-24T05:00:34;5.27;;;4.77;;
1414;SDS011;702;49.466;11.086;2023-06-24T05:03:01;5.10;;;4.53;;
1414;SDS011;702;49.466;11.086;2023-06-24T05:05:29;5.70;;;4.60;;
1414;SDS011;702;49.466;11.086;2023-06-24T05:07:57;4.87;;;4.37;;
1414;SDS011;702;49.466;11.086;2023-06-24T05:10:25;5.40;;;4.70;;
1414;SDS011;702;49.466;11.086;2023-06-24T05:12:52;5.00;;;4.60;;
1414;SDS011;702;49.466;11.086;2023-06-24T05:15:19;5.20;;;4.70;;
1414;SDS011;702;49.466;11.086;2023-06-24T05:17:46;5.53;;;4.37;;
1414;SDS011;702;49.466;11.086;2023-06-24T05:20:14;5.10;;;4.57;;
1414;SDS011;702;49.466;11.086;2023-06-24T05:22:42;5.20;;;4.70;;
1414;SDS011;702;49.466;11.086;2023-06-24T05:25:10;5.20;;;4.70;;
1414;SDS011;702;49.466;11.086;2023-06-24T05:27:38;5.40;;;4.90;;
1414;SDS011;702;49.466;11.086;2023-06-24T05:30:06;4.97;;;4.47;;
1414;SDS011;702;49.466;11.086;2023-06-24T05:32:34;5.30;;;4.63;;
1414;SDS011;702;49.466;11.086;2023-06-24T05:35:01;4.57;;;4.17;;
1414;SDS011;702;49.466;11.086;2023-06-24T05:37:29;4.03;;;3.73;;
1414;SDS011;702;49.466;11.086;2023-06-24T05:39:57;3.90;;;3.60;;
1414;SDS011;702;49.466;11.086;2023-06-24T05:42:26;4.87;;;4.47;;
1414;SDS011;702;49.466;11.086;2023-06-24T05:44:55;4.73;;;4.17;;
1414;SDS011;702;49.466;11.086;2023-06-24T05:47:22;5.00;;;4.50;;
1414;SDS011;702;49.466;11.086;2023-06-24T05:49:50;4.20;;;3.80;;
1414;SDS011;702;49.466;11.086;2023-06-24T05:52:17;4.57;;;3.60;;
1414;SDS011;702;49.466;11.086;2023-06-24T05:54:44;3.80;;;3.50;;
1414;SDS011;702;49.466;11.086;2023-06-24T05:57:12;3.33;;;3.03;;
1414;SDS011;702;49.466;11.086;2023-06-24T05:59:39;3.70;;;3.40;;
1414;SDS011;702;49.466;11.086;2023-06-24T06:02:08;3.87;;;3.30;;
1414;SDS011;702;49.466;11.086;2023-06-24T06:04:35;4.33;;;3.90;;
1414;SDS011;702;49.466;11.086;2023-06-24T06:07:05;4.30;;;3.90;;
1414;SDS011;702;49.466;11.086;2023-06-24T06:09:32;3.40;;;3.10;;
1414;SDS011;702;49.466;11.086;2023-06-24T06:12:00;4.77;;;3.60;;
1414;SDS011;702;49.466;11.086;2023-06-24T06:14:27;3.50;;;3.20;;
1414;SDS011;702;49.466;11.086;2023-06-24T06:16:54;4.27;;;3.87;;
1414;SDS011;702;49.466;11.086;2023-06-24T06:19:23;5.67;;;4.50;;
1414;SDS011;702;49.466;11.086;2023-06-24T06:21:51;3.67;;;3.27;;
1414;SDS011;702;49.466;11.086;2023-06-24T06:24:18;4.17;;;3.77;;
1414;SDS011;702;49.466;11.086;2023-06-24T06:26:45;4.17;;;3.87;;
1414;SDS011;702;49.466;11.086;2023-06-24T06:29:13;4.40;;;3.80;;
1414;SDS011;702;49.466;11.086;2023-06-24T06:31:40;4.20;;;2.90;;
1414;SDS011;702;49.466;11.086;2023-06-24T06:34:08;4.13;;;3.20;;
1414;SDS011;702;49.466;11.086;2023-06-24T06:36:37;3.87;;;3.50;;
1414;SDS011;702;49.466;11.086;2023-06-24T06:39:04;3.63;;;3.30;;
1414;SDS011;702;49.466;11.086;2023-06-24T06:41:32;4.43;;;3.60;;
1414;SDS011;702;49.466;11.086;2023-06-24T06:43:59;4.03;;;3.50;;
1414;SDS011;702;49.466;11.086;2023-06-24T06:46:27;3.67;;;3.30;;
1414;SDS011;702;49.466;11.086;2023-06-24T06:48:54;4.07;;;3.67;;
1414;SDS011;702;49.466;11.086;2023-06-24T06:51:22;3.93;;;3.53;;
1414;SDS011;702;49.466;11.086;2023-06-24T06:53:51;4.43;;;2.97;;
1414;SDS011;702;49.466;11.086;2023-06-24T06:56:18;3.13;;;2.77;;
1414;SDS011;702;49.466;11.086;2023-06-24T06:58:49;3.73;;;3.33;;
1414;SDS011;702;49.466;11.086;2023-06-24T07:01:17;3.90;;;3.60;;
1414;SDS011;702;49.466;11.086;2023-06-24T07:03:46;5.73;;;3.20;;
1414;SDS011;702;49.466;11.086;2023-06-24T07:06:15;4.77;;;3.40;;
1414;SDS011;702;49.466;11.086;2023-06-24T07:08:44;6.47;;;3.37;;
1414;SDS011;702;49.466;11.086;2023-06-24T07:11:13;3.57;;;3.27;;
1414;SDS011;702;49.466;11.086;2023-06-24T07:13:40;4.43;;;3.43;;
1414;SDS011;702;49.466;11.086;2023-06-24T07:16:08;5.00;;;4.00;;
1414;SDS011;702;49.466;11.086;2023-06-24T07:18:35;4.00;;;3.37;;
1414;SDS011;702;49.466;11.086;2023-06-24T07:21:03;3.70;;;3.40;;
1414;SDS011;702;49.466;11.086;2023-06-24T07:23:31;3.70;;;3.40;;
1414;SDS011;702;49.466;11.086;2023-06-24T07:25:59;4.23;;;3.83;;
1414;SDS011;702;49.466;11.086;2023-06-24T07:28:28;4.57;;;3.90;;
1414;SDS011;702;49.466;11.086;2023-06-24T07:30:55;4.23;;;3.80;;
1414;SDS011;702;49.466;11.086;2023-06-24T07:33:22;4.33;;;3.93;;
1414;SDS011;702;49.466;11.086;2023-06-24T07:35:50;4.00;;;3.60;;
1414;SDS011;702;49.466;11.086;2023-06-24T07:38:17;3.60;;;3.30;;
1414;SDS011;702;49.466;11.086;2023-06-24T07:40:45;4.77;;;4.00;;
1414;SDS011;702;49.466;11.086;2023-06-24T07:43:12;4.43;;;4.03;;
1414;SDS011;702;49.466;11.086;2023-06-24T07:45:41;3.73;;;3.43;;
1414;SDS011;702;49.466;11.086;2023-06-24T07:48:08;5.47;;;4.97;;
1414;SDS011;702;49.466;11.086;2023-06-24T07:50:36;5.23;;;4.83;;
1414;SDS011;702;49.466;11.086;2023-06-24T07:53:04;5.17;;;4.00;;
1414;SDS011;702;49.466;11.086;2023-06-24T07:55:32;4.70;;;3.77;;
1414;SDS011;702;49.466;11.086;2023-06-24T07:57:59;4.90;;;4.40;;
1414;SDS011;702;49.466;11.086;2023-06-24T08:00:27;4.73;;;4.27;;
1414;SDS011;702;49.466;11.086;2023-06-24T08:02:56;4.70;;;4.23;;
1414;SDS011;702;49.466;11.086;2023-06-24T08:05:24;5.00;;;4.50;;
1414;SDS011;702;49.466;11.086;2023-06-24T08:07:52;4.30;;;3.90;;
1414;SDS011;702;49.466;11.086;2023-06-24T08:10:19;4.70;;;3.80;;
1414;SDS011;702;49.466;11.086;2023-06-24T08:12:47;6.27;;;4.40;;
1414;SDS011;702;49.466;11.086;2023-06-24T08:15:15;5.17;;;4.17;;
1414;SDS011;702;49.466;11.086;2023-06-24T08:17:42;8.13;;;4.33;;
1414;SDS011;702;49.466;11.086;2023-06-24T08:20:11;4.93;;;4.40;;
1414;SDS011;702;49.466;11.086;2023-06-24T08:22:39;5.43;;;4.80;;
1414;SDS011;702;49.466;11.086;2023-06-24T08:25:06;5.17;;;4.67;;
1414;SDS011;702;49.466;11.086;2023-06-24T08:27:34;3.80;;;3.43;;
1414;SDS011;702;49.466;11.086;2023-06-24T08:30:03;5.77;;;4.63;;
1414;SDS011;702;49.466;11.086;2023-06-24T08:32:31;4.40;;;4.00;;
1414;SDS011;702;49.466;11.086;2023-06-24T08:34:58;6.97;;;5.07;;
1414;SDS011;702;49.466;11.086;2023-06-24T08:37:27;4.50;;;4.10;;
1414;SDS011;702;49.466;11.086;2023-06-24T08:39:55;5.40;;;4.87;;
1414;SDS011;702;49.466;11.086;2023-06-24T08:42:22;4.80;;;4.30;;
1414;SDS011;702;49.466;11.086;2023-06-24T08:44:51;5.07;;;4.63;;
1414;SDS011;702;49.466;11.086;2023-06-24T08:47:19;4.67;;;4.17;;
1414;SDS011;702;49.466;11.086;2023-06-24T08:49:47;4.97;;;4.30;;
1414;SDS011;702;49.466;11.086;2023-06-24T08:52:21;4.60;;;4.20;;
1414;SDS011;702;49.466;11.086;2023-06-24T08:54:53;4.47;;;4.07;;
1414;SDS011;702;49.466;11.086;2023-06-24T08:57:22;4.90;;;4.40;;
1414;SDS011;702;49.466;11.086;2023-06-24T08:59:51;4.27;;;3.87;;
1414;SDS011;702;49.466;11.086;2023-06-24T09:02:19;4.83;;;4.30;;
1414;SDS011;702;49.466;11.086;2023-06-24T09:04:46;4.20;;;3.80;;
1414;SDS011;702;49.466;11.086;2023-06-24T09:07:14;5.87;;;4.77;;
1414;SDS011;702;49.466;11.086;2023-06-24T09:09:53;4.17;;;3.77;;
1414;SDS011;702;49.466;11.086;2023-06-24T09:12:21;3.60;;;3.30;;
1414;SDS011;702;49.466;11.086;2023-06-24T09:14:50;3.57;;;3.27;;
1414;SDS011;702;49.466;11.086;2023-06-24T09:17:17;3.70;;;3.37;;
1414;SDS011;702;49.466;11.086;2023-06-24T09:19:47;3.63;;;3.33;;
1414;SDS011;702;49.466;11.086;2023-06-24T09:22:15;4.20;;;3.50;;
1414;SDS011;702;49.466;11.086;2023-06-24T09:24:43;4.50;;;3.83;;
1414;SDS011;702;49.466;11.086;2023-06-24T09:27:14;3.73;;;3.40;;
1414;SDS011;702;49.466;11.086;2023-06-24T09:29:43;3.20;;;2.90;;
1414;SDS011;702;49.466;11.086;2023-06-24T09:32:10;3.43;;;2.97;;
1414;SDS011;702;49.466;11.086;2023-06-24T09:34:37;2.47;;;2.27;;
1414;SDS011;702;49.466;11.086;2023-06-24T09:37:05;3.40;;;3.10;;
1414;SDS011;702;49.466;11.086;2023-06-24T09:39:35;3.57;;;3.27;;
1414;SDS011;702;49.466;11.086;2023-06-24T09:42:06;2.63;;;2.43;;
1414;SDS011;702;49.466;11.086;2023-06-24T09:44:36;3.03;;;2.80;;
1414;SDS011;702;49.466;11.086;2023-06-24T09:47:03;3.13;;;2.43;;
1414;SDS011;702;49.466;11.086;2023-06-24T09:49:31;3.03;;;2.73;;
1414;SDS011;702;49.466;11.086;2023-06-24T09:51:58;2.53;;;2.33;;
1414;SDS011;702;49.466;11.086;2023-06-24T09:54:28;2.87;;;2.53;;
1414;SDS011;702;49.466;11.086;2023-06-24T09:56:57;3.50;;;2.70;;
1414;SDS011;702;49.466;11.086;2023-06-24T09:59:28;3.90;;;2.93;;
1414;SDS011;702;49.466;11.086;2023-06-24T10:02:00;3.83;;;3.43;;
1414;SDS011;702;49.466;11.086;2023-06-24T10:04:29;3.80;;;3.50;;
1414;SDS011;702;49.466;11.086;2023-06-24T10:06:58;3.17;;;2.87;;
1414;SDS011;702;49.466;11.086;2023-06-24T10:09:27;4.30;;;3.20;;
1414;SDS011;702;49.466;11.086;2023-06-24T10:11:55;4.00;;;3.20;;
1414;SDS011;702;49.466;11.086;2023-06-24T10:14:22;3.07;;;2.80;;
1414;SDS011;702;49.466;11.086;2023-06-24T10:16:50;3.00;;;2.80;;
1414;SDS011;702;49.466;11.086;2023-06-24T10:19:20;3.30;;;3.00;;
1414;SDS011;702;49.466;11.086;2023-06-24T10:21:50;3.43;;;3.13;;
1414;SDS011;702;49.466;11.086;2023-06-24T10:24:28;3.57;;;3.27;;
1414;SDS011;702;49.466;11.086;2023-06-24T10:27:06;2.97;;;2.77;;
1414;SDS011;702;49.466;11.086;2023-06-24T10:29:35;3.10;;;2.90;;
1414;SDS011;702;49.466;11.086;2023-06-24T10:32:03;2.30;;;2.10;;
1414;SDS011;702;49.466;11.086;2023-06-24T10:34:34;2.93;;;2.73;;
1414;SDS011;702;49.466;11.086;2023-06-24T10:37:10;2.90;;;2.70;;
1414;SDS011;702;49.466;11.086;2023-06-24T10:39:50;3.70;;;3.00;;
1414;SDS011;702;49.466;11.086;2023-06-24T10:45:14;2.90;;;2.70;;
1414;SDS011;702;49.466;11.086;2023-06-24T10:47:45;3.27;;;2.97;;
1414;SDS011;702;49.466;11.086;2023-06-24T10:50:16;3.20;;;2.90;;
1414;SDS011;702;49.466;11.086;2023-06-24T10:52:47;2.63;;;2.43;;
1414;SDS011;702;49.466;11.086;2023-06-24T10:55:16;3.10;;;2.80;;
1414;SDS011;702;49.466;11.086;2023-06-24T10:57:44;3.30;;;3.00;;
1414;SDS011;702;49.466;11.086;2023-06-24T11:00:13;3.20;;;2.90;;
1414;SDS011;702;49.466;11.086;2023-06-24T11:02:41;2.97;;;2.63;;
1414;SDS011;702;49.466;11.086;2023-06-24T11:05:10;3.50;;;3.20;;
1414;SDS011;702;49.466;11.086;2023-06-24T11:07:39;3.50;;;3.20;;
1414;SDS011;702;49.466;11.086;2023-06-24T11:10:07;2.93;;;2.73;;
1414;SDS011;702;49.466;11.086;2023-06-24T11:12:38;3.23;;;2.70;;
1414;SDS011;702;49.466;11.086;2023-06-24T11:15:07;3.23;;;2.93;;
1414;SDS011;702;49.466;11.086;2023-06-24T11:17:36;3.07;;;2.77;;
1414;SDS011;702;49.466;11.086;2023-06-24T11:20:06;3.20;;;2.90;;
1414;SDS011;702;49.466;11.086;2023-06-24T11:22:35;3.63;;;3.20;;
1414;SDS011;702;49.466;11.086;2023-06-24T11:25:04;3.27;;;2.80;;
1414;SDS011;702;49.466;11.086;2023-06-24T11:27:32;3.57;;;3.27;;
1414;SDS011;702;49.466;11.086;2023-06-24T11:30:00;3.83;;;3.53;;
1414;SDS011;702;49.466;11.086;2023-06-24T11:32:34;3.30;;;3.00;;
1414;SDS011;702;49.466;11.086;2023-06-24T11:35:03;3.40;;;3.10;;
1414;SDS011;702;49.466;11.086;2023-06-24T11:37:32;3.60;;;3.10;;
1414;SDS011;702;49.466;11.086;2023-06-24T11:40:04;3.33;;;3.03;;
1414;SDS011;702;49.466;11.086;2023-06-24T11:42:35;3.53;;;3.23;;
1414;SDS011;702;49.466;11.086;2023-06-24T11:45:05;3.17;;;2.90;;
1414;SDS011;702;49.466;11.086;2023-06-24T11:47:35;3.40;;;2.70;;
1414;SDS011;702;49.466;11.086;2023-06-24T11:50:05;3.83;;;3.13;;
1414;SDS011;702;49.466;11.086;2023-06-24T11:52:38;3.10;;;2.80;;
1414;SDS011;702;49.466;11.086;2023-06-24T11:55:15;2.67;;;2.47;;
1414;SDS011;702;49.466;11.086;2023-06-24T11:57:51;3.60;;;3.30;;
1414;SDS011;702;49.466;11.086;2023-06-24T12:00:22;3.10;;;2.80;;
1414;SDS011;702;49.466;11.086;2023-06-24T12:02:50;3.23;;;2.90;;
1414;SDS011;702;49.466;11.086;2023-06-24T12:05:20;2.80;;;2.60;;
1414;SDS011;702;49.466;11.086;2023-06-24T12:07:53;2.63;;;2.43;;
1414;SDS011;702;49.466;11.086;2023-06-24T12:10:24;2.50;;;2.30;;
1414;SDS011;702;49.466;11.086;2023-06-24T12:12:52;2.83;;;2.63;;
1414;SDS011;702;49.466;11.086;2023-06-24T12:15:19;2.73;;;2.53;;
1414;SDS011;702;49.466;11.086;2023-06-24T12:17:46;3.00;;;2.57;;
1414;SDS011;702;49.466;11.086;2023-06-24T12:20:14;2.73;;;2.53;;
1414;SDS011;702;49.466;11.086;2023-06-24T12:22:43;4.30;;;3.10;;
1414;SDS011;702;49.466;11.086;2023-06-24T12:25:11;3.00;;;2.80;;
1414;SDS011;702;49.466;11.086;2023-06-24T12:27:39;3.23;;;2.93;;
1414;SDS011;702;49.466;11.086;2023-06-24T12:30:09;3.30;;;2.80;;
1414;SDS011;702;49.466;11.086;2023-06-24T12:32:37;3.27;;;2.90;;
1414;SDS011;702;49.466;11.086;2023-06-24T12:35:05;2.87;;;2.57;;
1414;SDS011;702;49.466;11.086;2023-06-24T12:37:34;2.90;;;2.40;;
1414;SDS011;702;49.466;11.086;2023-06-24T12:40:02;3.80;;;3.13;;
1414;SDS011;702;49.466;11.086;2023-06-24T12:42:30;2.93;;;2.47;;
1414;SDS011;702;49.466;11.086;2023-06-24T12:45:00;3.33;;;2.50;;
1414;SDS011;702;49.466;11.086;2023-06-24T12:47:27;3.20;;;2.90;;
1414;SDS011;702;49.466;11.086;2023-06-24T12:49:55;2.60;;;2.40;;
1414;SDS011;702;49.466;11.086;2023-06-24T12:52:22;2.93;;;2.70;;
1414;SDS011;702;49.466;11.086;2023-06-24T12:54:49;2.97;;;2.77;;
1414;SDS011;702;49.466;11.086;2023-06-24T12:57:16;3.10;;;2.80;;
1414;SDS011;702;49.466;11.086;2023-06-24T12:59:44;2.87;;;2.67;;
1414;SDS011;702;49.466;11.086;2023-06-24T13:02:12;2.53;;;2.33;;
1414;SDS011;702;49.466;11.086;2023-06-24T13:04:40;3.10;;;2.80;;
1414;SDS011;702;49.466;11.086;2023-06-24T13:07:07;2.90;;;2.50;;
1414;SDS011;702;49.466;11.086;2023-06-24T13:09:35;2.73;;;2.53;;
1414;SDS011;702;49.466;11.086;2023-06-24T13:12:02;3.00;;;2.80;;
1414;SDS011;702;49.466;11.086;2023-06-24T13:14:30;2.50;;;2.30;;
1414;SDS011;702;49.466;11.086;2023-06-24T13:16:57;2.40;;;2.17;;
1414;SDS011;702;49.466;11.086;2023-06-24T13:19:26;5.07;;;2.67;;
1414;SDS011;702;49.466;11.086;2023-06-24T13:21:53;3.00;;;2.80;;
1414;SDS011;702;49.466;11.086;2023-06-24T13:24:20;2.33;;;2.13;;
1414;SDS011;702;49.466;11.086;2023-06-24T13:26:48;2.33;;;2.13;;
1414;SDS011;702;49.466;11.086;2023-06-24T13:29:15;3.53;;;2.63;;
1414;SDS011;702;49.466;11.086;2023-06-24T13:31:42;2.40;;;2.20;;
1414;SDS011;702;49.466;11.086;2023-06-24T13:34:10;3.03;;;2.77;;
1414;SDS011;702;49.466;11.086;2023-06-24T13:36:38;4.10;;;2.50;;
1414;SDS011;702;49.466;11.086;2023-06-24T13:39:07;2.80;;;2.10;;
1414;SDS011;702;49.466;11.086;2023-06-24T13:41:36;2.80;;;2.60;;
1414;SDS011;702;49.466;11.086;2023-06-24T13:44:05;3.13;;;2.83;;
1414;SDS011;702;49.466;11.086;2023-06-24T13:46:33;2.17;;;2.03;;
1414;SDS011;702;49.466;11.086;2023-06-24T13:49:00;3.07;;;2.77;;
1414;SDS011;702;49.466;11.086;2023-06-24T13:51:28;2.57;;;2.37;;
1414;SDS011;702;49.466;11.086;2023-06-24T13:53:57;2.60;;;2.40;;
1414;SDS011;702;49.466;11.086;2023-06-24T13:56:24;3.47;;;3.17;;
1414;SDS011;702;49.466;11.086;2023-06-24T13:58:53;3.17;;;2.90;;
1414;SDS011;702;49.466;11.086;2023-06-24T14:01:21;3.13;;;2.50;;
1414;SDS011;702;49.466;11.086;2023-06-24T14:03:49;3.10;;;2.80;;
1414;SDS011;702;49.466;11.086;2023-06-24T14:06:18;4.43;;;4.07;;
1414;SDS011;702;49.466;11.086;2023-06-24T14:08:47;3.23;;;2.97;;
1414;SDS011;702;49.466;11.086;2023-06-24T14:11:17;2.20;;;2.00;;
1414;SDS011;702;49.466;11.086;2023-06-24T14:13:44;2.60;;;2.40;;
1414;SDS011;702;49.466;11.086;2023-06-24T14:16:11;2.53;;;2.33;;
1414;SDS011;702;49.466;11.086;2023-06-24T14:18:39;2.70;;;2.50;;
1414;SDS011;702;49.466;11.086;2023-06-24T14:21:07;3.27;;;3.00;;
1414;SDS011;702;49.466;11.086;2023-06-24T14:23:34;2.87;;;2.40;;
1414;SDS011;702;49.466;11.086;2023-06-24T14:26:02;2.97;;;2.67;;
1414;SDS011;702;49.466;11.086;2023-06-24T14:28:31;2.77;;;2.57;;
1414;SDS011;702;49.466;11.086;2023-06-24T14:30:58;3.27;;;2.80;;
1414;SDS011;702;49.466;11.086;2023-06-24T14:33:25;3.03;;;2.80;;
1414;SDS011;702;49.466;11.086;2023-06-24T14:35:53;2.50;;;2.30;;
1414;SDS011;702;49.466;11.086;2023-06-24T14:38:20;2.93;;;2.63;;
1414;SDS011;702;49.466;11.086;2023-06-24T14:40:48;2.40;;;2.20;;
1414;SDS011;702;49.466;11.086;2023-06-24T14:43:15;3.00;;;2.67;;
1414;SDS011;702;49.466;11.086;2023-06-24T14:45:45;2.70;;;1.97;;
1414;SDS011;702;49.466;11.086;2023-06-24T14:48:13;2.43;;;2.23;;
1414;SDS011;702;49.466;11.086;2023-06-24T14:50:40;2.30;;;2.10;;
1414;SDS011;702;49.466;11.086;2023-06-24T14:53:07;2.40;;;2.20;;
1414;SDS011;702;49.466;11.086;2023-06-24T14:55:34;2.53;;;2.03;;
1414;SDS011;702;49.466;11.086;2023-06-24T14:58:02;2.20;;;2.00;;
1414;SDS011;702;49.466;11.086;2023-06-24T15:00:30;2.67;;;2.47;;
1414;SDS011;702;49.466;11.086;2023-06-24T15:02:59;3.30;;;2.90;;
1414;SDS011;702;49.466;11.086;2023-06-24T15:05:26;2.67;;;2.37;;
1414;SDS011;702;49.466;11.086;2023-06-24T15:07:53;2.60;;;2.40;;
1414;SDS011;702;49.466;11.086;2023-06-24T15:10:20;2.97;;;2.50;;
1414;SDS011;702;49.466;11.086;2023-06-24T15:12:48;2.77;;;2.57;;
1414;SDS011;702;49.466;11.086;2023-06-24T15:15:15;3.27;;;2.90;;
1414;SDS011;702;49.466;11.086;2023-06-24T15:17:43;2.47;;;2.27;;
1414;SDS011;702;49.466;11.086;2023-06-24T15:20:12;2.93;;;2.50;;
1414;SDS011;702;49.466;11.086;2023-06-24T15:22:40;2.20;;;2.00;;
1414;SDS011;702;49.466;11.086;2023-06-24T15:25:07;2.57;;;2.37;;
1414;SDS011;702;49.466;11.086;2023-06-24T15:27:35;2.10;;;1.90;;
1414;SDS011;702;49.466;11.086;2023-06-24T15:30:03;2.80;;;2.50;;